Borsbeek, Belgium
Current Conditions -  °F | °C
As of 5:50 AM on Sunday 26 Oct 2014 (Local Time) from EBAW Reporting Station
Overcast Overcast  
Wind Chill: 54°   Ceiling: 3700
Heat Index: 54°   Visibility: 6mi
Dew Point: 48°   Wind: 6mph
Humidity: 82%   Direction: 210°SSW
Pressure: 30.24"   Gusts: NA
Location:  51.2°N, 4.49°E
Report Text: EBAW 260350Z AUTO 21005KT 9999 OVC037/// 12/09 Q1024
Loading
Personal Weather Stations






























Interactive Weather Map New forecast layout! Learn more

10-Day Weather Forecast

Advertisements
Track Severe Weather on mobile